sensor_id;sensor_type;location;lat;lon;timestamp;pressure;altitude;pressure_sealevel;temperature;humidity
80627;BME280;69982;51.758;5.784;2024-03-23T00:55:21;101019.00;;;8.01;78.63
80627;BME280;69982;51.758;5.784;2024-03-23T00:57:49;101016.98;;;8.03;78.98
80627;BME280;69982;51.758;5.784;2024-03-23T01:00:17;101017.97;;;8.06;78.92
80627;BME280;69982;51.758;5.784;2024-03-23T01:02:46;101020.16;;;8.10;79.19
80627;BME280;69982;51.758;5.784;2024-03-23T01:05:14;101024.02;;;8.15;79.12
80627;BME280;69982;51.758;5.784;2024-03-23T01:07:42;101016.33;;;8.18;78.74
80627;BME280;69982;51.758;5.784;2024-03-23T01:10:10;101011.05;;;8.18;78.93
80627;BME280;69982;51.758;5.784;2024-03-23T01:12:37;101014.59;;;8.17;78.59
80627;BME280;69982;51.758;5.784;2024-03-23T01:15:08;101023.98;;;8.15;78.60
80627;BME280;69982;51.758;5.784;2024-03-23T01:17:36;101014.40;;;8.11;78.28
80627;BME280;69982;51.758;5.784;2024-03-23T01:20:04;101014.30;;;8.09;78.47
80627;BME280;69982;51.758;5.784;2024-03-23T01:22:33;101017.00;;;8.05;78.46
80627;BME280;69982;51.758;5.784;2024-03-23T01:25:01;101015.70;;;8.02;78.04
80627;BME280;69982;51.758;5.784;2024-03-23T01:27:29;101003.64;;;7.98;77.89
80627;BME280;69982;51.758;5.784;2024-03-23T01:29:57;100997.25;;;7.93;77.66
80627;BME280;69982;51.758;5.784;2024-03-23T01:32:25;100997.30;;;7.91;77.54
80627;BME280;69982;51.758;5.784;2024-03-23T01:34:53;100994.10;;;7.90;77.58
80627;BME280;69982;51.758;5.784;2024-03-23T01:37:24;100994.73;;;7.91;77.55
80627;BME280;69982;51.758;5.784;2024-03-23T01:39:52;100991.61;;;7.92;77.31
80627;BME280;69982;51.758;5.784;2024-03-23T01:42:19;100989.81;;;7.92;77.02
80627;BME280;69982;51.758;5.784;2024-03-23T01:44:52;100985.40;;;7.93;77.17
80627;BME280;69982;51.758;5.784;2024-03-23T01:47:21;100978.58;;;7.91;76.95
80627;BME280;69982;51.758;5.784;2024-03-23T01:49:49;100976.36;;;7.87;77.20
80627;BME280;69982;51.758;5.784;2024-03-23T01:52:17;100972.84;;;7.85;77.33
80627;BME280;69982;51.758;5.784;2024-03-23T01:54:48;100972.23;;;7.81;77.41
80627;BME280;69982;51.758;5.784;2024-03-23T01:57:19;100964.43;;;7.76;77.39
80627;BME280;69982;51.758;5.784;2024-03-23T01:59:52;100965.64;;;7.71;77.71
80627;BME280;69982;51.758;5.784;2024-03-23T02:02:24;100971.65;;;7.66;77.84
80627;BME280;69982;51.758;5.784;2024-03-23T02:04:54;100975.06;;;7.65;78.01
80627;BME280;69982;51.758;5.784;2024-03-23T02:07:23;100980.59;;;7.65;78.21
80627;BME280;69982;51.758;5.784;2024-03-23T02:09:52;100971.88;;;7.66;78.25
80627;BME280;69982;51.758;5.784;2024-03-23T02:12:23;100966.89;;;7.67;78.52
80627;BME280;69982;51.758;5.784;2024-03-23T02:14:51;100964.16;;;7.69;78.61
80627;BME280;69982;51.758;5.784;2024-03-23T02:17:24;100961.55;;;7.70;78.50
80627;BME280;69982;51.758;5.784;2024-03-23T02:19:54;100954.58;;;7.68;78.48
80627;BME280;69982;51.758;5.784;2024-03-23T02:22:25;100953.73;;;7.65;78.71
80627;BME280;69982;51.758;5.784;2024-03-23T02:24:52;100952.91;;;7.61;79.02
80627;BME280;69982;51.758;5.784;2024-03-23T02:27:25;100954.05;;;7.56;79.14
80627;BME280;69982;51.758;5.784;2024-03-23T02:29:53;100955.23;;;7.52;79.26
80627;BME280;69982;51.758;5.784;2024-03-23T02:32:22;100951.64;;;7.47;79.45
80627;BME280;69982;51.758;5.784;2024-03-23T02:34:50;100941.94;;;7.45;79.57
80627;BME280;69982;51.758;5.784;2024-03-23T02:37:18;100942.77;;;7.48;79.74
80627;BME280;69982;51.758;5.784;2024-03-23T02:39:48;100938.61;;;7.50;79.89
80627;BME280;69982;51.758;5.784;2024-03-23T02:42:15;100933.20;;;7.54;80.04
80627;BME280;69982;51.758;5.784;2024-03-23T02:44:46;100932.52;;;7.56;79.92
80627;BME280;69982;51.758;5.784;2024-03-23T02:47:14;100932.86;;;7.56;79.97
80627;BME280;69982;51.758;5.784;2024-03-23T02:49:41;100938.48;;;7.55;80.11
80627;BME280;69982;51.758;5.784;2024-03-23T02:52:12;100943.30;;;7.54;80.33
80627;BME280;69982;51.758;5.784;2024-03-23T02:54:41;100946.94;;;7.51;80.44
80627;BME280;69982;51.758;5.784;2024-03-23T02:57:15;100945.61;;;7.46;80.56
80627;BME280;69982;51.758;5.784;2024-03-23T02:59:42;100942.58;;;7.46;80.63
80627;BME280;69982;51.758;5.784;2024-03-23T03:02:11;100940.06;;;7.50;80.70
80627;BME280;69982;51.758;5.784;2024-03-23T03:04:39;100939.89;;;7.54;80.77
80627;BME280;69982;51.758;5.784;2024-03-23T03:07:10;100943.52;;;7.57;80.49
80627;BME280;69982;51.758;5.784;2024-03-23T03:09:37;100942.38;;;7.60;80.64
80627;BME280;69982;51.758;5.784;2024-03-23T03:12:06;100946.59;;;7.61;80.64
80627;BME280;69982;51.758;5.784;2024-03-23T03:14:34;100945.08;;;7.61;80.62
80627;BME280;69982;51.758;5.784;2024-03-23T03:17:06;100941.34;;;7.59;80.54
80627;BME280;69982;51.758;5.784;2024-03-23T03:19:34;100944.36;;;7.56;80.41
80627;BME280;69982;51.758;5.784;2024-03-23T03:22:02;100946.38;;;7.50;80.36
80627;BME280;69982;51.758;5.784;2024-03-23T03:24:34;100947.27;;;7.44;80.48
80627;BME280;69982;51.758;5.784;2024-03-23T03:27:02;100946.61;;;7.42;80.69
80627;BME280;69982;51.758;5.784;2024-03-23T03:29:31;100947.35;;;7.41;80.76
80627;BME280;69982;51.758;5.784;2024-03-23T03:32:13;100946.21;;;7.42;80.76
80627;BME280;69982;51.758;5.784;2024-03-23T03:34:41;100947.15;;;7.43;80.80
80627;BME280;69982;51.758;5.784;2024-03-23T03:37:09;100942.60;;;7.46;80.64
80627;BME280;69982;51.758;5.784;2024-03-23T03:39:37;100939.21;;;7.47;80.57
80627;BME280;69982;51.758;5.784;2024-03-23T03:42:05;100933.87;;;7.47;80.41
80627;BME280;69982;51.758;5.784;2024-03-23T03:44:34;100928.20;;;7.46;80.36
80627;BME280;69982;51.758;5.784;2024-03-23T03:47:02;100927.86;;;7.44;80.40
80627;BME280;69982;51.758;5.784;2024-03-23T03:49:32;100928.17;;;7.40;80.24
80627;BME280;69982;51.758;5.784;2024-03-23T03:51:59;100922.87;;;7.36;80.27
80627;BME280;69982;51.758;5.784;2024-03-23T03:54:39;100925.23;;;7.30;80.27
80627;BME280;69982;51.758;5.784;2024-03-23T03:57:06;100920.23;;;7.27;80.16
80627;BME280;69982;51.758;5.784;2024-03-23T03:59:34;100920.42;;;7.27;80.22
80627;BME280;69982;51.758;5.784;2024-03-23T04:02:03;100916.62;;;7.28;80.07
80627;BME280;69982;51.758;5.784;2024-03-23T04:04:31;100915.12;;;7.28;80.03
80627;BME280;69982;51.758;5.784;2024-03-23T04:07:00;100910.82;;;7.28;80.04
80627;BME280;69982;51.758;5.784;2024-03-23T04:09:28;100915.05;;;7.27;79.96
80627;BME280;69982;51.758;5.784;2024-03-23T04:11:57;100916.14;;;7.25;79.91
80627;BME280;69982;51.758;5.784;2024-03-23T04:14:26;100915.63;;;7.23;79.92
80627;BME280;69982;51.758;5.784;2024-03-23T04:16:56;100920.80;;;7.17;80.02
80627;BME280;69982;51.758;5.784;2024-03-23T04:19:23;100922.30;;;7.12;79.91
80627;BME280;69982;51.758;5.784;2024-03-23T04:21:53;100918.98;;;7.11;80.24
80627;BME280;69982;51.758;5.784;2024-03-23T04:24:22;100919.70;;;7.13;80.14
80627;BME280;69982;51.758;5.784;2024-03-23T04:26:50;100919.13;;;7.18;80.35
80627;BME280;69982;51.758;5.784;2024-03-23T04:29:18;100918.02;;;7.22;80.18
80627;BME280;69982;51.758;5.784;2024-03-23T04:31:53;100920.69;;;7.24;80.32
80627;BME280;69982;51.758;5.784;2024-03-23T04:34:23;100923.73;;;7.23;79.85
80627;BME280;69982;51.758;5.784;2024-03-23T04:36:51;100921.42;;;7.19;79.97
80627;BME280;69982;51.758;5.784;2024-03-23T04:39:18;100921.28;;;7.12;79.88
80627;BME280;69982;51.758;5.784;2024-03-23T04:41:51;100920.42;;;7.05;79.86
80627;BME280;69982;51.758;5.784;2024-03-23T04:44:19;100924.45;;;6.99;80.00
80627;BME280;69982;51.758;5.784;2024-03-23T04:46:52;100921.84;;;6.90;79.97
80627;BME280;69982;51.758;5.784;2024-03-23T04:49:20;100919.67;;;6.87;80.13
80627;BME280;69982;51.758;5.784;2024-03-23T04:51:52;100920.98;;;6.84;80.07
80627;BME280;69982;51.758;5.784;2024-03-23T04:54:24;100916.09;;;6.83;79.93
80627;BME280;69982;51.758;5.784;2024-03-23T04:56:52;100915.55;;;6.79;80.09
80627;BME280;69982;51.758;5.784;2024-03-23T04:59:20;100917.82;;;6.78;80.07
80627;BME280;69982;51.758;5.784;2024-03-23T05:01:51;100914.11;;;6.75;79.89
80627;BME280;69982;51.758;5.784;2024-03-23T05:04:19;100916.58;;;6.70;79.86
80627;BME280;69982;51.758;5.784;2024-03-23T05:06:50;100907.50;;;6.63;79.76
80627;BME280;69982;51.758;5.784;2024-03-23T05:09:25;100911.23;;;6.55;79.95
80627;BME280;69982;51.758;5.784;2024-03-23T05:12:02;100909.31;;;6.48;79.97
80627;BME280;69982;51.758;5.784;2024-03-23T05:14:29;100913.16;;;6.45;79.86
80627;BME280;69982;51.758;5.784;2024-03-23T05:16:57;100911.00;;;6.43;79.89
80627;BME280;69982;51.758;5.784;2024-03-23T05:19:26;100912.00;;;6.42;79.87
80627;BME280;69982;51.758;5.784;2024-03-23T05:21:53;100908.33;;;6.41;80.01
80627;BME280;69982;51.758;5.784;2024-03-23T05:24:24;100909.29;;;6.39;79.78
80627;BME280;69982;51.758;5.784;2024-03-23T05:26:53;100908.02;;;6.35;79.82
80627;BME280;69982;51.758;5.784;2024-03-23T05:29:24;100907.36;;;6.30;79.92
80627;BME280;69982;51.758;5.784;2024-03-23T05:31:52;100909.30;;;6.26;79.93
80627;BME280;69982;51.758;5.784;2024-03-23T05:34:20;100907.67;;;6.23;79.96
80627;BME280;69982;51.758;5.784;2024-03-23T05:36:51;100908.27;;;6.20;79.80
80627;BME280;69982;51.758;5.784;2024-03-23T05:39:22;100907.80;;;6.19;80.06
80627;BME280;69982;51.758;5.784;2024-03-23T05:41:51;100910.93;;;6.21;80.04
80627;BME280;69982;51.758;5.784;2024-03-23T05:44:19;100909.49;;;6.22;79.81
80627;BME280;69982;51.758;5.784;2024-03-23T05:46:49;100910.35;;;6.25;79.81
80627;BME280;69982;51.758;5.784;2024-03-23T05:49:22;100908.20;;;6.25;79.65
80627;BME280;69982;51.758;5.784;2024-03-23T05:51:55;100908.58;;;6.23;79.75
80627;BME280;69982;51.758;5.784;2024-03-23T05:54:25;100909.30;;;6.21;79.82
80627;BME280;69982;51.758;5.784;2024-03-23T05:56:56;100908.81;;;6.16;79.69
80627;BME280;69982;51.758;5.784;2024-03-23T05:59:24;100908.10;;;6.10;79.83
80627;BME280;69982;51.758;5.784;2024-03-23T06:01:51;100909.25;;;6.07;79.98
80627;BME280;69982;51.758;5.784;2024-03-23T06:04:19;100914.85;;;6.09;80.25
80627;BME280;69982;51.758;5.784;2024-03-23T06:06:51;100914.34;;;6.13;80.51
80627;BME280;69982;51.758;5.784;2024-03-23T06:09:23;100919.16;;;6.15;80.31
80627;BME280;69982;51.758;5.784;2024-03-23T06:11:51;100919.45;;;6.15;80.31
80627;BME280;69982;51.758;5.784;2024-03-23T06:14:19;100924.30;;;6.15;80.35
80627;BME280;69982;51.758;5.784;2024-03-23T06:16:50;100924.77;;;6.12;80.18
80627;BME280;69982;51.758;5.784;2024-03-23T06:19:17;100929.40;;;6.07;80.26
80627;BME280;69982;51.758;5.784;2024-03-23T06:21:49;100927.67;;;6.00;80.28
80627;BME280;69982;51.758;5.784;2024-03-23T06:24:18;100926.19;;;5.95;80.34
80627;BME280;69982;51.758;5.784;2024-03-23T06:27:08;100927.67;;;5.90;80.50
80627;BME280;69982;51.758;5.784;2024-03-23T07:06:11;100922.81;;;6.42;80.13
80627;BME280;69982;51.758;5.784;2024-03-23T07:08:40;100922.75;;;6.49;80.26
80627;BME280;69982;51.758;5.784;2024-03-23T07:11:33;100922.36;;;6.56;80.59
80627;BME280;69982;51.758;5.784;2024-03-23T07:14:28;100925.67;;;6.60;80.36
80627;BME280;69982;51.758;5.784;2024-03-23T07:16:58;100921.06;;;6.66;80.43
80627;BME280;69982;51.758;5.784;2024-03-23T07:19:46;100922.75;;;6.73;80.38
80627;BME280;69982;51.758;5.784;2024-03-23T07:22:31;100926.11;;;6.79;79.80
80627;BME280;69982;51.758;5.784;2024-03-23T07:25:00;100926.27;;;6.83;79.36
80627;BME280;69982;51.758;5.784;2024-03-23T07:27:28;100925.35;;;6.87;79.49
80627;BME280;69982;51.758;5.784;2024-03-23T07:30:17;100923.37;;;6.91;79.47
80627;BME280;69982;51.758;5.784;2024-03-23T07:32:53;100921.81;;;6.98;79.62
80627;BME280;69982;51.758;5.784;2024-03-23T07:35:36;100923.50;;;7.05;79.55
80627;BME280;69982;51.758;5.784;2024-03-23T07:38:07;100921.81;;;7.12;79.69
80627;BME280;69982;51.758;5.784;2024-03-23T07:40:34;100919.77;;;7.23;79.74
80627;BME280;69982;51.758;5.784;2024-03-23T07:43:02;100918.83;;;7.33;78.69
80627;BME280;69982;51.758;5.784;2024-03-23T07:45:36;100921.13;;;7.42;78.60
80627;BME280;69982;51.758;5.784;2024-03-23T07:48:17;100919.55;;;7.52;78.54
80627;BME280;69982;51.758;5.784;2024-03-23T07:51:01;100912.60;;;7.62;78.58
80627;BME280;69982;51.758;5.784;2024-03-23T07:53:32;100916.08;;;7.71;78.14
80627;BME280;69982;51.758;5.784;2024-03-23T07:56:01;100916.64;;;7.78;78.05
80627;BME280;69982;51.758;5.784;2024-03-23T07:58:31;100919.34;;;7.86;77.96
80627;BME280;69982;51.758;5.784;2024-03-23T08:01:07;100920.98;;;7.95;77.13
80627;BME280;69982;51.758;5.784;2024-03-23T08:03:37;100919.98;;;8.05;76.66
80627;BME280;69982;51.758;5.784;2024-03-23T08:06:11;100920.35;;;8.14;76.35
80627;BME280;69982;51.758;5.784;2024-03-23T08:08:40;100920.44;;;8.21;75.03
80627;BME280;69982;51.758;5.784;2024-03-23T08:11:27;100923.61;;;8.25;75.16
80627;BME280;69982;51.758;5.784;2024-03-23T08:14:04;100922.14;;;8.33;75.86
80627;BME280;69982;51.758;5.784;2024-03-23T08:16:33;100921.45;;;8.42;75.05
80627;BME280;69982;51.758;5.784;2024-03-23T08:19:01;100915.66;;;8.50;72.78
80627;BME280;69982;51.758;5.784;2024-03-23T08:21:33;100919.39;;;8.60;73.52
80627;BME280;69982;51.758;5.784;2024-03-23T08:24:01;100920.24;;;8.71;73.70
80627;BME280;69982;51.758;5.784;2024-03-23T08:26:28;100916.52;;;8.77;72.16
80627;BME280;69982;51.758;5.784;2024-03-23T08:28:58;100916.40;;;8.79;72.07
80627;BME280;69982;51.758;5.784;2024-03-23T08:31:26;100919.34;;;8.82;72.90
80627;BME280;69982;51.758;5.784;2024-03-23T08:33:54;100921.23;;;8.81;71.40
80627;BME280;69982;51.758;5.784;2024-03-23T08:36:25;100919.48;;;8.79;71.00
80627;BME280;69982;51.758;5.784;2024-03-23T08:38:52;100921.83;;;8.77;71.51
80627;BME280;69982;51.758;5.784;2024-03-23T08:41:25;100918.48;;;8.80;71.46
80627;BME280;69982;51.758;5.784;2024-03-23T08:43:54;100915.86;;;8.88;70.99
80627;BME280;69982;51.758;5.784;2024-03-23T08:46:26;100915.69;;;8.97;70.84
80627;BME280;69982;51.758;5.784;2024-03-23T08:48:55;100916.52;;;9.02;70.52
80627;BME280;69982;51.758;5.784;2024-03-23T08:51:26;100913.64;;;9.06;70.13
80627;BME280;69982;51.758;5.784;2024-03-23T08:53:54;100910.23;;;9.02;68.15
80627;BME280;69982;51.758;5.784;2024-03-23T08:56:25;100912.40;;;9.04;69.00
80627;BME280;69982;51.758;5.784;2024-03-23T08:58:53;100915.52;;;9.07;69.30
80627;BME280;69982;51.758;5.784;2024-03-23T09:01:24;100915.50;;;9.17;69.97
80627;BME280;69982;51.758;5.784;2024-03-23T09:03:52;100908.73;;;9.31;69.02
80627;BME280;69982;51.758;5.784;2024-03-23T09:06:24;100908.75;;;9.42;67.39
80627;BME280;69982;51.758;5.784;2024-03-23T09:08:51;100904.87;;;9.48;66.56
80627;BME280;69982;51.758;5.784;2024-03-23T09:11:19;100908.83;;;9.51;66.54
80627;BME280;69982;51.758;5.784;2024-03-23T09:13:53;100905.54;;;9.52;65.06
80627;BME280;69982;51.758;5.784;2024-03-23T09:16:20;100900.40;;;9.52;64.93
80627;BME280;69982;51.758;5.784;2024-03-23T09:18:55;100904.75;;;9.51;63.44
80627;BME280;69982;51.758;5.784;2024-03-23T09:21:26;100902.48;;;9.48;64.16
80627;BME280;69982;51.758;5.784;2024-03-23T09:23:54;100901.40;;;9.43;64.32
80627;BME280;69982;51.758;5.784;2024-03-23T09:26:29;100901.31;;;9.35;63.95
80627;BME280;69982;51.758;5.784;2024-03-23T09:28:57;100905.06;;;9.30;64.36
80627;BME280;69982;51.758;5.784;2024-03-23T09:31:37;100902.21;;;9.30;64.01
80627;BME280;69982;51.758;5.784;2024-03-23T09:34:05;100897.91;;;9.26;63.42
80627;BME280;69982;51.758;5.784;2024-03-23T09:36:36;100901.81;;;9.16;62.82
80627;BME280;69982;51.758;5.784;2024-03-23T09:39:06;100905.42;;;9.11;63.58
80627;BME280;69982;51.758;5.784;2024-03-23T09:41:35;100905.63;;;9.14;64.65
80627;BME280;69982;51.758;5.784;2024-03-23T09:44:04;100900.65;;;9.22;64.43
80627;BME280;69982;51.758;5.784;2024-03-23T09:46:33;100897.86;;;9.32;64.81
80627;BME280;69982;51.758;5.784;2024-03-23T09:49:03;100892.96;;;9.46;65.20
80627;BME280;69982;51.758;5.784;2024-03-23T09:51:46;100889.59;;;9.66;64.16
80627;BME280;69982;51.758;5.784;2024-03-23T09:54:15;100882.02;;;9.82;63.02
80627;BME280;69982;51.758;5.784;2024-03-23T09:56:43;100883.23;;;9.97;63.36
80627;BME280;69982;51.758;5.784;2024-03-23T09:59:11;100882.50;;;10.13;64.17
80627;BME280;69982;51.758;5.784;2024-03-23T10:01:41;100877.44;;;10.25;63.91
80627;BME280;69982;51.758;5.784;2024-03-23T10:04:09;100879.88;;;10.32;63.49
80627;BME280;69982;51.758;5.784;2024-03-23T10:06:47;100880.57;;;10.36;62.84
80627;BME280;69982;51.758;5.784;2024-03-23T10:09:17;100884.71;;;10.34;61.63
80627;BME280;69982;51.758;5.784;2024-03-23T10:11:51;100882.80;;;10.20;59.45
80627;BME280;69982;51.758;5.784;2024-03-23T10:14:29;100885.73;;;10.01;59.05
80627;BME280;69982;51.758;5.784;2024-03-23T10:17:11;100887.83;;;9.83;58.70
80627;BME280;69982;51.758;5.784;2024-03-23T10:19:43;100878.22;;;9.74;59.46
80627;BME280;69982;51.758;5.784;2024-03-23T10:22:16;100887.56;;;9.73;59.75
80627;BME280;69982;51.758;5.784;2024-03-23T10:24:44;100886.29;;;9.70;60.03
80627;BME280;69982;51.758;5.784;2024-03-23T10:27:15;100888.98;;;9.61;59.81
80627;BME280;69982;51.758;5.784;2024-03-23T10:29:49;100889.50;;;9.55;59.40
80627;BME280;69982;51.758;5.784;2024-03-23T10:32:19;100888.55;;;9.58;60.49
80627;BME280;69982;51.758;5.784;2024-03-23T10:34:51;100890.77;;;9.70;60.06
80627;BME280;69982;51.758;5.784;2024-03-23T10:37:21;100889.45;;;9.83;59.97
80627;BME280;69982;51.758;5.784;2024-03-23T10:39:50;100881.61;;;9.97;59.43
80627;BME280;69982;51.758;5.784;2024-03-23T10:42:19;100878.93;;;10.10;57.72
80627;BME280;69982;51.758;5.784;2024-03-23T10:44:53;100876.61;;;10.24;57.91
80627;BME280;69982;51.758;5.784;2024-03-23T10:47:24;100881.86;;;10.38;56.03
80627;BME280;69982;51.758;5.784;2024-03-23T10:49:53;100878.05;;;10.43;56.07
80627;BME280;69982;51.758;5.784;2024-03-23T10:52:22;100883.04;;;10.52;56.44
80627;BME280;69982;51.758;5.784;2024-03-23T10:54:51;100886.16;;;10.61;57.44
80627;BME280;69982;51.758;5.784;2024-03-23T10:57:26;100890.23;;;10.52;58.97
80627;BME280;69982;51.758;5.784;2024-03-23T11:00:21;100883.95;;;10.26;61.25
80627;BME280;69982;51.758;5.784;2024-03-23T11:02:56;100887.95;;;10.02;60.40
80627;BME280;69982;51.758;5.784;2024-03-23T11:08:00;100878.02;;;9.66;61.35
80627;BME280;69982;51.758;5.784;2024-03-23T11:10:30;100870.67;;;9.57;60.53
80627;BME280;69982;51.758;5.784;2024-03-23T11:12:58;100870.52;;;9.53;60.33
80627;BME280;69982;51.758;5.784;2024-03-23T11:15:46;100872.92;;;9.54;60.80
80627;BME280;69982;51.758;5.784;2024-03-23T11:18:20;100871.42;;;9.61;60.46
80627;BME280;69982;51.758;5.784;2024-03-23T11:20:50;100871.55;;;9.65;60.29
80627;BME280;69982;51.758;5.784;2024-03-23T11:23:27;100869.19;;;9.66;58.14
80627;BME280;69982;51.758;5.784;2024-03-23T11:25:57;100872.98;;;9.72;58.71
80627;BME280;69982;51.758;5.784;2024-03-23T11:28:25;100871.98;;;9.86;58.24
80627;BME280;69982;51.758;5.784;2024-03-23T11:30:53;100869.05;;;10.00;57.63
80627;BME280;69982;51.758;5.784;2024-03-23T11:33:20;100866.09;;;10.12;57.24
80627;BME280;69982;51.758;5.784;2024-03-23T11:35:51;100861.33;;;10.16;56.73
80627;BME280;69982;51.758;5.784;2024-03-23T11:38:19;100863.55;;;10.14;56.57
80627;BME280;69982;51.758;5.784;2024-03-23T11:40:48;100865.70;;;10.08;56.23
80627;BME280;69982;51.758;5.784;2024-03-23T11:43:20;100865.17;;;9.92;56.07
80627;BME280;69982;51.758;5.784;2024-03-23T11:45:59;100867.79;;;9.70;58.15
80627;BME280;69982;51.758;5.784;2024-03-23T11:48:34;100871.80;;;9.58;58.38
80627;BME280;69982;51.758;5.784;2024-03-23T11:51:03;100866.73;;;9.50;59.17
80627;BME280;69982;51.758;5.784;2024-03-23T11:53:30;100861.47;;;9.48;58.67
80627;BME280;69982;51.758;5.784;2024-03-23T11:56:00;100866.56;;;9.55;57.69
80627;BME280;69982;51.758;5.784;2024-03-23T11:58:28;100880.27;;;9.48;56.21
80627;BME280;69982;51.758;5.784;2024-03-23T12:03:27;100876.63;;;8.95;57.49
80627;BME280;69982;51.758;5.784;2024-03-23T12:06:02;100881.00;;;8.72;57.43
80627;BME280;69982;51.758;5.784;2024-03-23T12:13:37;100879.11;;;8.32;60.95
80627;BME280;69982;51.758;5.784;2024-03-23T12:16:10;100869.18;;;8.29;61.55
80627;BME280;69982;51.758;5.784;2024-03-23T12:18:40;100865.27;;;8.32;60.68
80627;BME280;69982;51.758;5.784;2024-03-23T12:21:09;100858.17;;;8.42;60.27
80627;BME280;69982;51.758;5.784;2024-03-23T12:23:39;100856.75;;;8.60;60.80
80627;BME280;69982;51.758;5.784;2024-03-23T12:26:09;100847.54;;;8.83;61.31
80627;BME280;69982;51.758;5.784;2024-03-23T12:28:38;100844.29;;;9.09;60.77
80627;BME280;69982;51.758;5.784;2024-03-23T12:31:06;100836.88;;;9.36;59.88
80627;BME280;69982;51.758;5.784;2024-03-23T12:33:33;100832.16;;;9.58;58.85
80627;BME280;69982;51.758;5.784;2024-03-23T12:36:01;100832.34;;;9.70;59.31
80627;BME280;69982;51.758;5.784;2024-03-23T12:38:28;100827.90;;;9.77;58.15
80627;BME280;69982;51.758;5.784;2024-03-23T12:40:56;100828.59;;;9.79;59.08
80627;BME280;69982;51.758;5.784;2024-03-23T12:43:24;100825.91;;;9.79;59.67
80627;BME280;69982;51.758;5.784;2024-03-23T12:45:52;100823.52;;;9.76;59.59
80627;BME280;69982;51.758;5.784;2024-03-23T12:48:26;100826.05;;;9.81;60.06
80627;BME280;69982;51.758;5.784;2024-03-23T12:50:55;100824.21;;;9.86;59.74
80627;BME280;69982;51.758;5.784;2024-03-23T12:53:25;100819.06;;;9.85;57.60
80627;BME280;69982;51.758;5.784;2024-03-23T12:55:53;100828.94;;;9.81;57.61
80627;BME280;69982;51.758;5.784;2024-03-23T12:58:20;100819.48;;;9.75;56.73
80627;BME280;69982;51.758;5.784;2024-03-23T13:00:50;100827.55;;;9.69;57.15
80627;BME280;69982;51.758;5.784;2024-03-23T13:03:22;100827.91;;;9.78;58.35
80627;BME280;69982;51.758;5.784;2024-03-23T13:05:54;100831.06;;;9.93;58.10
80627;BME280;69982;51.758;5.784;2024-03-23T13:08:22;100821.52;;;10.11;56.79
80627;BME280;69982;51.758;5.784;2024-03-23T13:10:55;100819.21;;;10.33;57.08
80627;BME280;69982;51.758;5.784;2024-03-23T13:13:25;100806.55;;;10.53;56.03
80627;BME280;69982;51.758;5.784;2024-03-23T13:15:53;100811.15;;;10.65;55.43
80627;BME280;69982;51.758;5.784;2024-03-23T13:18:21;100814.86;;;10.68;54.54
80627;BME280;69982;51.758;5.784;2024-03-23T13:20:56;100817.87;;;10.60;54.31
80627;BME280;69982;51.758;5.784;2024-03-23T13:23:27;100837.17;;;10.42;56.48
80627;BME280;69982;51.758;5.784;2024-03-23T13:25:56;100841.20;;;10.13;59.04
80627;BME280;69982;51.758;5.784;2024-03-23T13:28:32;100839.38;;;10.00;60.66
80627;BME280;69982;51.758;5.784;2024-03-23T13:31:01;100832.20;;;9.84;60.17
80627;BME280;69982;51.758;5.784;2024-03-23T13:33:34;100838.89;;;9.67;60.13
80627;BME280;69982;51.758;5.784;2024-03-23T13:36:02;100836.52;;;9.52;59.96
80627;BME280;69982;51.758;5.784;2024-03-23T13:38:30;100838.16;;;9.34;58.91
80627;BME280;69982;51.758;5.784;2024-03-23T13:40:59;100846.02;;;9.14;59.54
80627;BME280;69982;51.758;5.784;2024-03-23T13:43:35;100846.56;;;9.01;60.66
80627;BME280;69982;51.758;5.784;2024-03-23T13:46:03;100844.96;;;8.92;60.87
80627;BME280;69982;51.758;5.784;2024-03-23T13:48:35;100847.52;;;9.01;62.14
80627;BME280;69982;51.758;5.784;2024-03-23T13:51:04;100840.45;;;9.16;62.39
80627;BME280;69982;51.758;5.784;2024-03-23T13:53:31;100835.86;;;9.25;61.38
80627;BME280;69982;51.758;5.784;2024-03-23T13:56:02;100833.16;;;9.41;60.63
80627;BME280;69982;51.758;5.784;2024-03-23T13:58:30;100829.72;;;9.58;60.63
80627;BME280;69982;51.758;5.784;2024-03-23T14:00:58;100823.06;;;9.73;60.22
80627;BME280;69982;51.758;5.784;2024-03-23T14:03:30;100824.77;;;9.94;60.75
80627;BME280;69982;51.758;5.784;2024-03-23T14:06:00;100822.91;;;10.17;58.86
80627;BME280;69982;51.758;5.784;2024-03-23T14:08:30;100822.61;;;10.31;58.86
80627;BME280;69982;51.758;5.784;2024-03-23T14:11:00;100823.64;;;10.41;58.38
80627;BME280;69982;51.758;5.784;2024-03-23T14:13:30;100821.84;;;10.42;57.13
80627;BME280;69982;51.758;5.784;2024-03-23T14:15:58;100814.95;;;10.35;57.04
80627;BME280;69982;51.758;5.784;2024-03-23T14:18:26;100808.71;;;10.24;57.70
80627;BME280;69982;51.758;5.784;2024-03-23T14:21:01;100802.77;;;10.16;57.94
80627;BME280;69982;51.758;5.784;2024-03-23T14:23:32;100800.80;;;10.12;57.92
80627;BME280;69982;51.758;5.784;2024-03-23T14:26:02;100801.23;;;10.17;57.99
80627;BME280;69982;51.758;5.784;2024-03-23T14:28:30;100798.55;;;10.20;58.01
80627;BME280;69982;51.758;5.784;2024-03-23T14:30:58;100805.19;;;10.27;58.31
80627;BME280;69982;51.758;5.784;2024-03-23T14:33:26;100805.71;;;10.30;57.64
80627;BME280;69982;51.758;5.784;2024-03-23T14:35:54;100799.25;;;10.37;57.86
80627;BME280;69982;51.758;5.784;2024-03-23T14:38:25;100802.48;;;10.42;57.36
80627;BME280;69982;51.758;5.784;2024-03-23T14:40:58;100804.64;;;10.41;56.86
80627;BME280;69982;51.758;5.784;2024-03-23T14:43:25;100802.64;;;10.49;57.52
80627;BME280;69982;51.758;5.784;2024-03-23T14:46:13;100803.34;;;10.62;56.87
80627;BME280;69982;51.758;5.784;2024-03-23T14:48:43;100793.65;;;10.75;56.70
80627;BME280;69982;51.758;5.784;2024-03-23T14:51:11;100788.98;;;10.85;56.59
80627;BME280;69982;51.758;5.784;2024-03-23T14:53:41;100782.09;;;10.87;56.46
80627;BME280;69982;51.758;5.784;2024-03-23T14:56:09;100780.36;;;10.83;56.48